NOZ9TK ENGM-LFPG
Flight info
| Callsign | NOZ9TK |
|---|---|
| Flight time | 2h 0m |
| Altitude | 38000 |
| Route | VIPPA DCT DOROR DCT WOODY/N0444F390 N872 NIK UY131 NILEM DCT MOPIL |
| Aircraft | B38M/M-SDE2E3GIJ1LRWXY/LB2 |
Departure
| Time | 2026-05-09 06:11 |
|---|---|
| Airport | Oslo-Gardermoen International Airport (ENGM) |
Arrival
| Time | 2026-05-09 08:11 |
|---|---|
| Airport | Charles de Gaulle International Airport (LFPG) |
| Time | Latitude | Longitude | Altitude | Speed | Heading |
|---|---|---|---|---|---|
| 2026-05-09 05:21 | 60.19474 | 11.10160 | 687 ft | 0 kts | 231° |
| 2026-05-09 06:01 | 60.19485 | 11.10188 | 679 ft | 2 kts | 232° |
| 2026-05-09 06:02 | 60.19498 | 11.10223 | 683 ft | 4 kts | 236° |
| 2026-05-09 06:02 | 60.19512 | 11.10268 | 683 ft | 2 kts | 241° |
| 2026-05-09 06:02 | 60.19523 | 11.10307 | 681 ft | 4 kts | 241° |
| 2026-05-09 06:02 | 60.19536 | 11.10354 | 679 ft | 4 kts | 241° |
| 2026-05-09 06:03 | 60.19544 | 11.10385 | 679 ft | 0 kts | 241° |
| 2026-05-09 06:05 | 60.19543 | 11.10384 | 679 ft | 0 kts | 231° |
| 2026-05-09 06:06 | 60.19532 | 11.10389 | 682 ft | 4 kts | 154° |
| 2026-05-09 06:06 | 60.19518 | 11.10477 | 686 ft | 9 kts | 94° |
| 2026-05-09 06:06 | 60.19505 | 11.10632 | 683 ft | 13 kts | 106° |
| 2026-05-09 06:06 | 60.19477 | 11.10825 | 683 ft | 15 kts | 106° |
| 2026-05-09 06:07 | 60.19446 | 11.11044 | 683 ft | 17 kts | 106° |
| 2026-05-09 06:07 | 60.19422 | 11.11226 | 681 ft | 10 kts | 90° |
| 2026-05-09 06:07 | 60.19473 | 11.11312 | 682 ft | 12 kts | 15° |
| 2026-05-09 06:07 | 60.19568 | 11.11367 | 681 ft | 17 kts | 16° |
| 2026-05-09 06:08 | 60.19688 | 11.11436 | 683 ft | 19 kts | 16° |
| 2026-05-09 06:08 | 60.19818 | 11.11512 | 684 ft | 20 kts | 16° |
| 2026-05-09 06:08 | 60.19948 | 11.11587 | 685 ft | 16 kts | 16° |
| 2026-05-09 06:08 | 60.20047 | 11.11644 | 682 ft | 13 kts | 16° |
| 2026-05-09 06:09 | 60.20088 | 11.11753 | 688 ft | 11 kts | 103° |
| 2026-05-09 06:09 | 60.20064 | 11.11917 | 685 ft | 13 kts | 106° |
| 2026-05-09 06:09 | 60.20041 | 11.12075 | 691 ft | 12 kts | 106° |
| 2026-05-09 06:09 | 60.20020 | 11.12179 | 690 ft | 5 kts | 143° |
| 2026-05-09 06:10 | 60.20001 | 11.12180 | 686 ft | 0 kts | 197° |
| 2026-05-09 06:10 | 60.19967 | 11.12160 | 691 ft | 28 kts | 196° |
| 2026-05-09 06:10 | 60.19497 | 11.11889 | 680 ft | 110 kts | 196° |
| 2026-05-09 06:10 | 60.18546 | 11.11340 | 689 ft | 175 kts | 196° |
| 2026-05-09 06:11 | 60.17309 | 11.10587 | 1321 ft | 190 kts | 196° |
| 2026-05-09 06:11 | 60.16038 | 11.09861 | 2478 ft | 188 kts | 197° |
| 2026-05-09 06:11 | 60.14722 | 11.09136 | 3177 ft | 205 kts | 196° |
| 2026-05-09 06:11 | 60.13298 | 11.08362 | 3893 ft | 218 kts | 194° |
| 2026-05-09 06:12 | 60.11781 | 11.07905 | 4675 ft | 230 kts | 187° |
| 2026-05-09 06:12 | 60.10124 | 11.07572 | 5304 ft | 247 kts | 187° |
| 2026-05-09 06:12 | 60.08404 | 11.07211 | 6262 ft | 248 kts | 187° |
| 2026-05-09 06:12 | 60.06678 | 11.06799 | 7209 ft | 251 kts | 192° |
| 2026-05-09 06:13 | 60.05022 | 11.05666 | 8104 ft | 253 kts | 202° |
| 2026-05-09 06:13 | 60.03398 | 11.04375 | 8980 ft | 257 kts | 202° |
| 2026-05-09 06:13 | 60.01704 | 11.03047 | 9892 ft | 260 kts | 202° |
| 2026-05-09 06:13 | 60.00021 | 11.01738 | 10617 ft | 268 kts | 202° |
| 2026-05-09 06:14 | 59.98218 | 11.00345 | 11020 ft | 287 kts | 201° |
| 2026-05-09 06:14 | 59.96295 | 10.98865 | 11493 ft | 302 kts | 201° |
| 2026-05-09 06:14 | 59.94314 | 10.97342 | 12209 ft | 307 kts | 201° |
| 2026-05-09 06:14 | 59.92301 | 10.95796 | 13000 ft | 312 kts | 201° |
| 2026-05-09 06:15 | 59.90259 | 10.94230 | 13768 ft | 317 kts | 201° |
| 2026-05-09 06:15 | 59.88183 | 10.92640 | 14485 ft | 321 kts | 201° |
| 2026-05-09 06:15 | 59.86108 | 10.91054 | 15195 ft | 325 kts | 202° |
| 2026-05-09 06:15 | 59.83987 | 10.89433 | 15902 ft | 328 kts | 202° |
| 2026-05-09 06:16 | 59.81837 | 10.87794 | 16617 ft | 332 kts | 202° |
| 2026-05-09 06:16 | 59.79667 | 10.86141 | 17297 ft | 335 kts | 202° |
| 2026-05-09 06:16 | 59.77470 | 10.84470 | 17971 ft | 339 kts | 202° |
| 2026-05-09 06:16 | 59.75259 | 10.82791 | 18626 ft | 342 kts | 202° |
| 2026-05-09 06:17 | 59.73049 | 10.81115 | 19171 ft | 346 kts | 202° |
| 2026-05-09 06:17 | 59.70787 | 10.79402 | 19718 ft | 349 kts | 202° |
| 2026-05-09 06:17 | 59.68503 | 10.77675 | 20250 ft | 352 kts | 202° |
| 2026-05-09 06:17 | 59.66200 | 10.75936 | 20803 ft | 355 kts | 202° |
| 2026-05-09 06:18 | 59.63879 | 10.74185 | 21339 ft | 358 kts | 203° |
| 2026-05-09 06:18 | 59.61561 | 10.72440 | 21868 ft | 361 kts | 203° |
| 2026-05-09 06:18 | 59.59192 | 10.70659 | 22401 ft | 365 kts | 203° |
| 2026-05-09 06:18 | 59.56810 | 10.68871 | 22937 ft | 367 kts | 203° |
| 2026-05-09 06:19 | 59.54404 | 10.67068 | 23473 ft | 371 kts | 203° |
| 2026-05-09 06:19 | 59.51979 | 10.65253 | 23974 ft | 374 kts | 203° |
| 2026-05-09 06:19 | 59.49540 | 10.63431 | 24411 ft | 377 kts | 203° |
| 2026-05-09 06:19 | 59.47082 | 10.61597 | 24870 ft | 379 kts | 204° |
| 2026-05-09 06:20 | 59.44608 | 10.59754 | 25292 ft | 382 kts | 204° |
| 2026-05-09 06:20 | 59.42138 | 10.57917 | 25678 ft | 386 kts | 204° |
| 2026-05-09 06:20 | 59.39616 | 10.56044 | 26114 ft | 388 kts | 204° |
| 2026-05-09 06:20 | 59.37080 | 10.54165 | 26545 ft | 391 kts | 204° |
| 2026-05-09 06:21 | 59.34517 | 10.52268 | 26960 ft | 393 kts | 204° |
| 2026-05-09 06:21 | 59.31942 | 10.50364 | 27374 ft | 396 kts | 204° |
| 2026-05-09 06:21 | 59.29382 | 10.48477 | 27745 ft | 398 kts | 204° |
| 2026-05-09 06:21 | 59.26777 | 10.46557 | 28149 ft | 401 kts | 204° |
| 2026-05-09 06:22 | 59.24157 | 10.44630 | 28551 ft | 403 kts | 204° |
| 2026-05-09 06:22 | 59.21522 | 10.42696 | 28951 ft | 405 kts | 204° |
| 2026-05-09 06:22 | 59.18876 | 10.40757 | 29333 ft | 408 kts | 204° |
| 2026-05-09 06:22 | 59.16204 | 10.38801 | 29681 ft | 411 kts | 204° |
| 2026-05-09 06:23 | 59.13510 | 10.36834 | 30025 ft | 414 kts | 204° |
| 2026-05-09 06:23 | 59.10803 | 10.34860 | 30389 ft | 416 kts | 205° |
| 2026-05-09 06:23 | 59.08080 | 10.32877 | 30681 ft | 419 kts | 205° |
| 2026-05-09 06:23 | 59.05343 | 10.30887 | 30982 ft | 421 kts | 205° |
| 2026-05-09 06:24 | 59.02593 | 10.28891 | 31272 ft | 423 kts | 205° |
| 2026-05-09 06:24 | 58.99825 | 10.26887 | 31553 ft | 425 kts | 205° |
| 2026-05-09 06:24 | 58.97076 | 10.24899 | 31829 ft | 428 kts | 205° |
| 2026-05-09 06:24 | 58.94298 | 10.22829 | 32099 ft | 427 kts | 209° |
| 2026-05-09 06:25 | 58.91588 | 10.20383 | 32356 ft | 429 kts | 210° |
| 2026-05-09 06:25 | 58.88858 | 10.17952 | 32574 ft | 433 kts | 210° |
| 2026-05-09 06:25 | 58.86107 | 10.15536 | 32906 ft | 433 kts | 210° |
| 2026-05-09 06:25 | 58.83359 | 10.13139 | 33275 ft | 433 kts | 210° |
| 2026-05-09 06:26 | 58.80642 | 10.10777 | 33619 ft | 433 kts | 210° |
| 2026-05-09 06:26 | 58.77894 | 10.08394 | 33988 ft | 433 kts | 210° |
| 2026-05-09 06:26 | 58.75148 | 10.06017 | 34336 ft | 432 kts | 211° |
| 2026-05-09 06:26 | 58.72424 | 10.03666 | 34628 ft | 432 kts | 210° |
| 2026-05-09 06:27 | 58.69680 | 10.01300 | 34902 ft | 432 kts | 210° |
| 2026-05-09 06:27 | 58.66925 | 9.98927 | 35180 ft | 432 kts | 210° |
| 2026-05-09 06:27 | 58.64177 | 9.96565 | 35445 ft | 433 kts | 210° |
| 2026-05-09 06:27 | 58.61417 | 9.94197 | 35660 ft | 434 kts | 210° |
| 2026-05-09 06:28 | 58.58649 | 9.91826 | 35891 ft | 435 kts | 209° |
| 2026-05-09 06:28 | 58.55879 | 9.89457 | 36159 ft | 435 kts | 209° |
| 2026-05-09 06:28 | 58.53136 | 9.87116 | 36428 ft | 436 kts | 209° |
| 2026-05-09 06:28 | 58.50364 | 9.84754 | 36681 ft | 435 kts | 209° |
| 2026-05-09 06:29 | 58.47589 | 9.82392 | 36930 ft | 436 kts | 208° |
| 2026-05-09 06:29 | 58.44812 | 9.80034 | 37173 ft | 436 kts | 208° |
| 2026-05-09 06:29 | 58.42038 | 9.77683 | 37412 ft | 436 kts | 208° |
| 2026-05-09 06:29 | 58.39264 | 9.75335 | 37652 ft | 436 kts | 208° |
| 2026-05-09 06:30 | 58.36518 | 9.73014 | 37875 ft | 436 kts | 208° |
| 2026-05-09 06:30 | 58.33741 | 9.70673 | 38089 ft | 436 kts | 208° |
| 2026-05-09 06:30 | 58.30961 | 9.68332 | 38266 ft | 437 kts | 207° |
| 2026-05-09 06:30 | 58.28181 | 9.65995 | 38283 ft | 437 kts | 207° |
| 2026-05-09 06:31 | 58.22622 | 9.61334 | 38274 ft | 435 kts | 207° |
| 2026-05-09 06:31 | 58.17096 | 9.56717 | 38266 ft | 435 kts | 207° |
| 2026-05-09 06:32 | 58.11540 | 9.52092 | 38253 ft | 435 kts | 207° |
| 2026-05-09 06:33 | 58.03222 | 9.45196 | 38269 ft | 436 kts | 207° |
| 2026-05-09 06:33 | 57.97647 | 9.40593 | 38276 ft | 436 kts | 207° |
| 2026-05-09 06:34 | 57.89319 | 9.33747 | 38279 ft | 436 kts | 207° |
| 2026-05-09 06:34 | 57.83749 | 9.29188 | 38265 ft | 437 kts | 207° |
| 2026-05-09 06:35 | 57.78187 | 9.24651 | 38277 ft | 438 kts | 207° |
| 2026-05-09 06:35 | 57.72578 | 9.20091 | 38276 ft | 438 kts | 207° |
| 2026-05-09 06:36 | 57.66992 | 9.15564 | 38276 ft | 438 kts | 207° |
| 2026-05-09 06:36 | 57.61439 | 9.11080 | 38276 ft | 438 kts | 207° |
| 2026-05-09 06:37 | 57.55837 | 9.06571 | 38273 ft | 439 kts | 207° |
| 2026-05-09 06:37 | 57.50204 | 9.02052 | 38283 ft | 439 kts | 207° |
| 2026-05-09 06:38 | 57.44606 | 8.97577 | 38275 ft | 437 kts | 207° |
| 2026-05-09 06:38 | 57.39027 | 8.93132 | 38276 ft | 438 kts | 207° |
| 2026-05-09 06:39 | 57.33418 | 8.88678 | 38254 ft | 438 kts | 207° |
| 2026-05-09 06:39 | 57.27804 | 8.84234 | 38280 ft | 439 kts | 207° |
| 2026-05-09 06:40 | 57.22211 | 8.79822 | 38270 ft | 439 kts | 207° |
| 2026-05-09 06:40 | 57.16612 | 8.75419 | 38277 ft | 439 kts | 207° |
| 2026-05-09 06:41 | 57.10982 | 8.71008 | 38271 ft | 439 kts | 207° |
| 2026-05-09 06:41 | 57.05356 | 8.66613 | 38257 ft | 439 kts | 207° |
| 2026-05-09 06:42 | 56.99722 | 8.62227 | 38273 ft | 441 kts | 207° |
| 2026-05-09 06:42 | 56.94102 | 8.57866 | 38276 ft | 440 kts | 207° |
| 2026-05-09 06:43 | 56.88453 | 8.53497 | 38273 ft | 440 kts | 207° |
| 2026-05-09 06:43 | 56.83758 | 8.49877 | 38272 ft | 441 kts | 207° |
| 2026-05-09 06:44 | 56.78097 | 8.45525 | 38272 ft | 441 kts | 207° |
| 2026-05-09 06:44 | 56.72450 | 8.41198 | 38263 ft | 442 kts | 207° |
| 2026-05-09 06:45 | 56.66770 | 8.36860 | 38265 ft | 442 kts | 207° |
| 2026-05-09 06:45 | 56.61120 | 8.32560 | 38272 ft | 441 kts | 207° |
| 2026-05-09 06:46 | 56.55444 | 8.28253 | 38243 ft | 442 kts | 206° |
| 2026-05-09 06:46 | 56.49753 | 8.23949 | 38267 ft | 443 kts | 206° |
| 2026-05-09 06:47 | 56.44098 | 8.19686 | 38257 ft | 443 kts | 206° |
| 2026-05-09 06:47 | 56.38392 | 8.15398 | 38258 ft | 443 kts | 206° |
| 2026-05-09 06:48 | 56.32723 | 8.11153 | 38263 ft | 443 kts | 206° |
| 2026-05-09 06:48 | 56.27010 | 8.06889 | 38260 ft | 444 kts | 206° |
| 2026-05-09 06:49 | 56.21282 | 8.02626 | 38259 ft | 444 kts | 206° |
| 2026-05-09 06:49 | 56.15601 | 7.98412 | 38258 ft | 442 kts | 206° |
| 2026-05-09 06:50 | 56.09930 | 7.94219 | 38256 ft | 440 kts | 206° |
| 2026-05-09 06:50 | 56.04251 | 7.90034 | 38228 ft | 440 kts | 206° |
| 2026-05-09 06:51 | 55.98592 | 7.85877 | 38251 ft | 442 kts | 206° |
| 2026-05-09 06:51 | 55.92908 | 7.81715 | 38251 ft | 441 kts | 206° |
| 2026-05-09 06:52 | 55.87247 | 7.77582 | 38251 ft | 441 kts | 206° |
| 2026-05-09 06:52 | 55.81552 | 7.73438 | 38250 ft | 441 kts | 206° |
| 2026-05-09 06:53 | 55.75886 | 7.69329 | 38249 ft | 441 kts | 206° |
| 2026-05-09 06:53 | 55.70185 | 7.65206 | 38247 ft | 442 kts | 206° |
| 2026-05-09 06:54 | 55.64486 | 7.61098 | 38238 ft | 441 kts | 206° |
| 2026-05-09 06:54 | 55.58791 | 7.57006 | 38238 ft | 441 kts | 206° |
| 2026-05-09 06:55 | 55.53128 | 7.52951 | 38226 ft | 442 kts | 206° |
| 2026-05-09 06:55 | 55.47403 | 7.48862 | 38238 ft | 443 kts | 206° |
| 2026-05-09 06:56 | 55.41722 | 7.44818 | 38238 ft | 442 kts | 206° |
| 2026-05-09 06:56 | 55.36008 | 7.40763 | 38231 ft | 442 kts | 206° |
| 2026-05-09 06:57 | 55.30290 | 7.36715 | 38234 ft | 442 kts | 206° |
| 2026-05-09 06:57 | 55.24593 | 7.32694 | 38231 ft | 444 kts | 205° |
| 2026-05-09 06:58 | 55.18851 | 7.28655 | 38228 ft | 443 kts | 205° |
| 2026-05-09 06:58 | 55.13113 | 7.24630 | 38223 ft | 443 kts | 205° |
| 2026-05-09 06:59 | 55.07419 | 7.20649 | 38223 ft | 443 kts | 205° |
| 2026-05-09 06:59 | 55.01670 | 7.16642 | 38219 ft | 444 kts | 205° |
| 2026-05-09 07:00 | 54.96128 | 7.12005 | 38253 ft | 442 kts | 210° |
| 2026-05-09 07:00 | 54.90644 | 7.07313 | 38228 ft | 441 kts | 210° |
| 2026-05-09 07:01 | 54.85135 | 7.02651 | 38210 ft | 439 kts | 209° |
| 2026-05-09 07:01 | 54.79639 | 6.98017 | 38197 ft | 439 kts | 209° |
| 2026-05-09 07:02 | 54.74159 | 6.93411 | 38215 ft | 440 kts | 209° |
| 2026-05-09 07:02 | 54.68631 | 6.88778 | 38210 ft | 439 kts | 209° |
| 2026-05-09 07:03 | 54.63161 | 6.84207 | 38209 ft | 439 kts | 209° |
| 2026-05-09 07:03 | 54.57639 | 6.79608 | 38209 ft | 439 kts | 209° |
| 2026-05-09 07:04 | 54.52125 | 6.75029 | 38203 ft | 440 kts | 209° |
| 2026-05-09 07:04 | 54.46592 | 6.70448 | 38204 ft | 440 kts | 209° |
| 2026-05-09 07:05 | 54.41094 | 6.65909 | 38206 ft | 440 kts | 209° |
| 2026-05-09 07:05 | 54.35556 | 6.61351 | 38196 ft | 440 kts | 209° |
| 2026-05-09 07:06 | 54.30019 | 6.56809 | 38194 ft | 441 kts | 208° |
| 2026-05-09 07:06 | 54.24506 | 6.52298 | 38198 ft | 441 kts | 208° |
| 2026-05-09 07:07 | 54.18964 | 6.47777 | 38200 ft | 441 kts | 208° |
| 2026-05-09 07:07 | 54.13415 | 6.43265 | 38198 ft | 441 kts | 208° |
| 2026-05-09 07:08 | 54.07859 | 6.38761 | 38201 ft | 441 kts | 208° |
| 2026-05-09 07:08 | 54.02305 | 6.34271 | 38199 ft | 442 kts | 208° |
| 2026-05-09 07:09 | 53.96777 | 6.29815 | 38202 ft | 441 kts | 208° |
| 2026-05-09 07:09 | 53.91232 | 6.25360 | 38194 ft | 439 kts | 208° |
| 2026-05-09 07:10 | 53.85696 | 6.20924 | 38189 ft | 439 kts | 208° |
| 2026-05-09 07:10 | 53.80187 | 6.16523 | 38188 ft | 440 kts | 208° |
| 2026-05-09 07:11 | 53.74638 | 6.12102 | 38188 ft | 440 kts | 208° |
| 2026-05-09 07:11 | 53.69082 | 6.07690 | 38190 ft | 440 kts | 208° |
| 2026-05-09 07:12 | 53.63564 | 6.03321 | 38190 ft | 440 kts | 208° |
| 2026-05-09 07:12 | 53.58015 | 5.98940 | 38168 ft | 440 kts | 207° |
| 2026-05-09 07:13 | 53.52473 | 5.94576 | 38189 ft | 441 kts | 207° |
| 2026-05-09 07:13 | 53.46907 | 5.90207 | 38186 ft | 441 kts | 207° |
| 2026-05-09 07:14 | 53.41339 | 5.85848 | 38184 ft | 441 kts | 207° |
| 2026-05-09 07:14 | 53.35794 | 5.81573 | 38179 ft | 442 kts | 203° |
| 2026-05-09 07:15 | 53.29909 | 5.78398 | 38166 ft | 443 kts | 201° |
| 2026-05-09 07:15 | 53.24088 | 5.75110 | 38186 ft | 443 kts | 201° |
| 2026-05-09 07:16 | 53.18246 | 5.71781 | 38184 ft | 443 kts | 201° |
| 2026-05-09 07:16 | 53.12382 | 5.68445 | 38184 ft | 443 kts | 201° |
| 2026-05-09 07:17 | 53.06575 | 5.65152 | 38184 ft | 444 kts | 201° |
| 2026-05-09 07:17 | 53.00716 | 5.61838 | 38181 ft | 444 kts | 201° |
| 2026-05-09 07:18 | 52.94857 | 5.58533 | 38181 ft | 444 kts | 201° |
| 2026-05-09 07:18 | 52.89042 | 5.55262 | 38180 ft | 443 kts | 201° |
| 2026-05-09 07:19 | 52.83223 | 5.52000 | 38173 ft | 441 kts | 201° |
| 2026-05-09 07:19 | 52.77410 | 5.48749 | 38173 ft | 441 kts | 201° |
| 2026-05-09 07:20 | 52.71612 | 5.45516 | 38172 ft | 441 kts | 201° |
| 2026-05-09 07:20 | 52.65798 | 5.42283 | 38176 ft | 441 kts | 201° |
| 2026-05-09 07:21 | 52.59966 | 5.39050 | 38178 ft | 440 kts | 201° |
| 2026-05-09 07:21 | 52.54180 | 5.35850 | 38180 ft | 440 kts | 201° |
| 2026-05-09 07:22 | 52.48356 | 5.32639 | 38182 ft | 440 kts | 201° |
| 2026-05-09 07:22 | 52.42573 | 5.29458 | 38182 ft | 440 kts | 201° |
| 2026-05-09 07:23 | 52.36738 | 5.26259 | 38177 ft | 440 kts | 200° |
| 2026-05-09 07:23 | 52.30925 | 5.23080 | 38173 ft | 440 kts | 200° |
| 2026-05-09 07:24 | 52.25134 | 5.19923 | 38162 ft | 440 kts | 200° |
| 2026-05-09 07:24 | 52.19310 | 5.16755 | 38160 ft | 440 kts | 200° |
| 2026-05-09 07:25 | 52.13527 | 5.13619 | 38159 ft | 440 kts | 200° |
| 2026-05-09 07:25 | 52.07693 | 5.10463 | 38158 ft | 440 kts | 200° |
| 2026-05-09 07:26 | 52.01880 | 5.07329 | 38159 ft | 440 kts | 200° |
| 2026-05-09 07:26 | 51.96082 | 5.04210 | 38157 ft | 440 kts | 200° |
| 2026-05-09 07:27 | 51.90281 | 5.01099 | 38155 ft | 440 kts | 200° |
| 2026-05-09 07:27 | 51.84452 | 4.97980 | 38156 ft | 440 kts | 200° |
| 2026-05-09 07:28 | 51.78669 | 4.94895 | 38156 ft | 440 kts | 200° |
| 2026-05-09 07:28 | 51.72838 | 4.91793 | 38155 ft | 440 kts | 200° |
| 2026-05-09 07:29 | 51.67023 | 4.88708 | 38156 ft | 440 kts | 200° |
| 2026-05-09 07:29 | 51.61224 | 4.85639 | 38157 ft | 440 kts | 200° |
| 2026-05-09 07:30 | 51.56348 | 4.83066 | 38155 ft | 440 kts | 200° |
| 2026-05-09 07:30 | 51.50564 | 4.80020 | 38164 ft | 440 kts | 200° |
| 2026-05-09 07:31 | 51.44745 | 4.76965 | 38149 ft | 438 kts | 200° |
| 2026-05-09 07:31 | 51.38946 | 4.73927 | 38150 ft | 438 kts | 200° |
| 2026-05-09 07:32 | 51.33174 | 4.70912 | 38148 ft | 438 kts | 199° |
| 2026-05-09 07:32 | 51.27365 | 4.67886 | 38153 ft | 438 kts | 199° |
| 2026-05-09 07:33 | 51.18703 | 4.63388 | 38166 ft | 437 kts | 199° |
| 2026-05-09 07:34 | 51.12905 | 4.60388 | 38155 ft | 437 kts | 199° |
| 2026-05-09 07:34 | 51.07117 | 4.57401 | 38154 ft | 437 kts | 199° |
| 2026-05-09 07:35 | 51.01356 | 4.54435 | 38124 ft | 437 kts | 199° |
| 2026-05-09 07:35 | 50.95548 | 4.51453 | 38128 ft | 438 kts | 199° |
| 2026-05-09 07:36 | 50.89743 | 4.48480 | 38127 ft | 438 kts | 199° |
| 2026-05-09 07:36 | 50.84015 | 4.45554 | 38119 ft | 437 kts | 199° |
| 2026-05-09 07:36 | 50.81143 | 4.44091 | 37697 ft | 430 kts | 199° |
| 2026-05-09 07:37 | 50.78300 | 4.42644 | 37123 ft | 427 kts | 199° |
| 2026-05-09 07:37 | 50.75479 | 4.41210 | 36614 ft | 424 kts | 199° |
| 2026-05-09 07:37 | 50.72691 | 4.39794 | 36123 ft | 420 kts | 199° |
| 2026-05-09 07:37 | 50.69910 | 4.38383 | 35643 ft | 417 kts | 199° |
| 2026-05-09 07:38 | 50.67187 | 4.37003 | 35152 ft | 415 kts | 199° |
| 2026-05-09 07:38 | 50.64439 | 4.35613 | 34648 ft | 412 kts | 198° |
| 2026-05-09 07:38 | 50.61716 | 4.34237 | 34183 ft | 411 kts | 198° |
| 2026-05-09 07:38 | 50.58991 | 4.32861 | 33619 ft | 409 kts | 198° |
| 2026-05-09 07:39 | 50.56291 | 4.31500 | 33096 ft | 406 kts | 198° |
| 2026-05-09 07:39 | 50.53613 | 4.30153 | 32627 ft | 403 kts | 198° |
| 2026-05-09 07:39 | 50.50954 | 4.28816 | 32155 ft | 400 kts | 198° |
| 2026-05-09 07:39 | 50.48310 | 4.27487 | 31705 ft | 397 kts | 198° |
| 2026-05-09 07:40 | 50.45687 | 4.26172 | 31248 ft | 394 kts | 198° |
| 2026-05-09 07:40 | 50.43084 | 4.24867 | 30788 ft | 392 kts | 197° |
| 2026-05-09 07:40 | 50.40486 | 4.23566 | 30333 ft | 390 kts | 197° |
| 2026-05-09 07:40 | 50.37934 | 4.22291 | 29848 ft | 388 kts | 197° |
| 2026-05-09 07:41 | 50.35364 | 4.21007 | 29374 ft | 385 kts | 197° |
| 2026-05-09 07:41 | 50.32816 | 4.19735 | 28929 ft | 382 kts | 197° |
| 2026-05-09 07:41 | 50.30296 | 4.18480 | 28510 ft | 378 kts | 197° |
| 2026-05-09 07:41 | 50.27795 | 4.17235 | 28086 ft | 375 kts | 197° |
| 2026-05-09 07:42 | 50.25343 | 4.16016 | 27683 ft | 372 kts | 197° |
| 2026-05-09 07:42 | 50.22885 | 4.14795 | 27273 ft | 369 kts | 197° |
| 2026-05-09 07:42 | 50.20442 | 4.13583 | 26873 ft | 366 kts | 197° |
| 2026-05-09 07:42 | 50.18016 | 4.12381 | 26474 ft | 364 kts | 197° |
| 2026-05-09 07:43 | 50.15609 | 4.11183 | 26093 ft | 362 kts | 198° |
| 2026-05-09 07:43 | 50.13380 | 4.09484 | 25959 ft | 352 kts | 212° |
| 2026-05-09 07:43 | 50.11351 | 4.07543 | 25892 ft | 340 kts | 210° |
| 2026-05-09 07:43 | 50.09338 | 4.05694 | 25815 ft | 335 kts | 209° |
| 2026-05-09 07:44 | 50.07289 | 4.03823 | 25752 ft | 347 kts | 210° |
| 2026-05-09 07:44 | 50.05189 | 4.01908 | 25677 ft | 352 kts | 209° |
| 2026-05-09 07:44 | 50.03060 | 3.99968 | 25598 ft | 355 kts | 209° |
| 2026-05-09 07:44 | 50.00921 | 3.98021 | 25419 ft | 355 kts | 210° |
| 2026-05-09 07:45 | 49.98788 | 3.96082 | 25068 ft | 354 kts | 209° |
| 2026-05-09 07:45 | 49.96660 | 3.94151 | 24684 ft | 353 kts | 209° |
| 2026-05-09 07:45 | 49.94569 | 3.92252 | 24310 ft | 352 kts | 209° |
| 2026-05-09 07:45 | 49.92456 | 3.90339 | 23936 ft | 351 kts | 209° |
| 2026-05-09 07:46 | 49.90348 | 3.88432 | 23544 ft | 349 kts | 210° |
| 2026-05-09 07:46 | 49.88252 | 3.86535 | 23120 ft | 348 kts | 209° |
| 2026-05-09 07:46 | 49.86164 | 3.84648 | 22734 ft | 345 kts | 210° |
| 2026-05-09 07:46 | 49.84098 | 3.82783 | 22361 ft | 342 kts | 210° |
| 2026-05-09 07:47 | 49.82043 | 3.80931 | 22012 ft | 339 kts | 210° |
| 2026-05-09 07:47 | 49.80014 | 3.79104 | 21652 ft | 336 kts | 210° |
| 2026-05-09 07:47 | 49.78028 | 3.77316 | 21302 ft | 333 kts | 210° |
| 2026-05-09 07:47 | 49.76030 | 3.75520 | 20950 ft | 331 kts | 210° |
| 2026-05-09 07:48 | 49.74050 | 3.73741 | 20598 ft | 328 kts | 210° |
| 2026-05-09 07:48 | 49.72082 | 3.71976 | 20252 ft | 326 kts | 210° |
| 2026-05-09 07:48 | 49.70125 | 3.70221 | 19909 ft | 323 kts | 211° |
| 2026-05-09 07:48 | 49.68184 | 3.68482 | 19562 ft | 321 kts | 211° |
| 2026-05-09 07:49 | 49.66260 | 3.66760 | 19227 ft | 319 kts | 211° |
| 2026-05-09 07:49 | 49.64343 | 3.65047 | 18890 ft | 317 kts | 211° |
| 2026-05-09 07:49 | 49.62458 | 3.63364 | 18548 ft | 315 kts | 211° |
| 2026-05-09 07:49 | 49.60561 | 3.61672 | 18177 ft | 314 kts | 211° |
| 2026-05-09 07:50 | 49.58673 | 3.59988 | 17810 ft | 312 kts | 211° |
| 2026-05-09 07:50 | 49.56796 | 3.58317 | 17465 ft | 309 kts | 211° |
| 2026-05-09 07:50 | 49.54940 | 3.56665 | 17128 ft | 306 kts | 211° |
| 2026-05-09 07:50 | 49.53127 | 3.55053 | 16805 ft | 303 kts | 211° |
| 2026-05-09 07:51 | 49.51305 | 3.53434 | 16482 ft | 300 kts | 211° |
| 2026-05-09 07:51 | 49.49497 | 3.51830 | 16160 ft | 298 kts | 211° |
| 2026-05-09 07:51 | 49.47709 | 3.50244 | 15845 ft | 295 kts | 211° |
| 2026-05-09 07:51 | 49.45933 | 3.48671 | 15516 ft | 293 kts | 211° |
| 2026-05-09 07:52 | 49.44190 | 3.47128 | 15214 ft | 291 kts | 211° |
| 2026-05-09 07:52 | 49.42559 | 3.45349 | 14944 ft | 288 kts | 228° |
| 2026-05-09 07:52 | 49.41485 | 3.42763 | 14737 ft | 289 kts | 245° |
| 2026-05-09 07:52 | 49.40658 | 3.39930 | 14585 ft | 290 kts | 246° |
| 2026-05-09 07:53 | 49.39853 | 3.37086 | 14394 ft | 290 kts | 246° |
| 2026-05-09 07:53 | 49.39075 | 3.34279 | 14198 ft | 288 kts | 246° |
| 2026-05-09 07:53 | 49.38299 | 3.31444 | 13982 ft | 287 kts | 247° |
| 2026-05-09 07:53 | 49.37533 | 3.28619 | 13793 ft | 286 kts | 247° |
| 2026-05-09 07:54 | 49.36773 | 3.25806 | 13575 ft | 285 kts | 247° |
| 2026-05-09 07:54 | 49.36017 | 3.23000 | 13379 ft | 284 kts | 247° |
| 2026-05-09 07:54 | 49.35264 | 3.20206 | 13157 ft | 283 kts | 247° |
| 2026-05-09 07:54 | 49.34512 | 3.17419 | 12972 ft | 282 kts | 247° |
| 2026-05-09 07:55 | 49.33771 | 3.14675 | 12770 ft | 281 kts | 247° |
| 2026-05-09 07:55 | 49.33024 | 3.11906 | 12588 ft | 280 kts | 247° |
| 2026-05-09 07:55 | 49.32280 | 3.09156 | 12390 ft | 279 kts | 247° |
| 2026-05-09 07:55 | 49.31537 | 3.06412 | 12199 ft | 278 kts | 247° |
| 2026-05-09 07:56 | 49.30802 | 3.03700 | 12003 ft | 277 kts | 247° |
| 2026-05-09 07:56 | 49.30061 | 3.00971 | 11798 ft | 276 kts | 247° |
| 2026-05-09 07:56 | 49.29323 | 2.98254 | 11615 ft | 276 kts | 247° |
| 2026-05-09 07:56 | 49.28586 | 2.95545 | 11423 ft | 275 kts | 247° |
| 2026-05-09 07:57 | 49.27852 | 2.92852 | 11233 ft | 274 kts | 247° |
| 2026-05-09 07:57 | 49.27117 | 2.90155 | 11030 ft | 273 kts | 247° |
| 2026-05-09 07:57 | 49.26395 | 2.87510 | 10850 ft | 273 kts | 246° |
| 2026-05-09 07:57 | 49.25661 | 2.84825 | 10664 ft | 273 kts | 246° |
| 2026-05-09 07:58 | 49.24928 | 2.82145 | 10481 ft | 273 kts | 246° |
| 2026-05-09 07:58 | 49.24195 | 2.79468 | 10282 ft | 272 kts | 246° |
| 2026-05-09 07:58 | 49.23465 | 2.76804 | 10094 ft | 271 kts | 246° |
| 2026-05-09 07:58 | 49.22736 | 2.74148 | 9899 ft | 270 kts | 246° |
| 2026-05-09 07:59 | 49.22007 | 2.71499 | 9694 ft | 269 kts | 246° |
| 2026-05-09 07:59 | 49.21291 | 2.68895 | 9500 ft | 269 kts | 246° |
| 2026-05-09 07:59 | 49.20564 | 2.66255 | 9308 ft | 269 kts | 246° |
| 2026-05-09 07:59 | 49.19837 | 2.63617 | 9126 ft | 268 kts | 246° |
| 2026-05-09 08:00 | 49.19113 | 2.60991 | 8932 ft | 268 kts | 246° |
| 2026-05-09 08:00 | 49.18395 | 2.58366 | 8735 ft | 267 kts | 249° |
| 2026-05-09 08:00 | 49.18091 | 2.55564 | 8487 ft | 268 kts | 267° |
| 2026-05-09 08:00 | 49.18029 | 2.52746 | 8300 ft | 268 kts | 266° |
| 2026-05-09 08:01 | 49.17958 | 2.49896 | 8122 ft | 268 kts | 266° |
| 2026-05-09 08:01 | 49.17891 | 2.47045 | 7932 ft | 268 kts | 266° |
| 2026-05-09 08:01 | 49.17826 | 2.44204 | 7751 ft | 267 kts | 266° |
| 2026-05-09 08:01 | 49.17762 | 2.41363 | 7562 ft | 267 kts | 266° |
| 2026-05-09 08:02 | 49.17698 | 2.38530 | 7373 ft | 267 kts | 266° |
| 2026-05-09 08:02 | 49.17648 | 2.35692 | 7177 ft | 267 kts | 267° |
| 2026-05-09 08:02 | 49.17611 | 2.32843 | 6983 ft | 266 kts | 267° |
| 2026-05-09 08:02 | 49.17573 | 2.30058 | 6789 ft | 266 kts | 266° |
| 2026-05-09 08:03 | 49.17534 | 2.27217 | 6617 ft | 266 kts | 267° |
| 2026-05-09 08:03 | 49.17466 | 2.24398 | 6411 ft | 263 kts | 259° |
| 2026-05-09 08:03 | 49.16837 | 2.21854 | 6199 ft | 253 kts | 236° |
| 2026-05-09 08:03 | 49.15826 | 2.19696 | 6049 ft | 246 kts | 232° |
| 2026-05-09 08:04 | 49.14811 | 2.17630 | 5905 ft | 239 kts | 232° |
| 2026-05-09 08:04 | 49.13739 | 2.15812 | 5726 ft | 230 kts | 211° |
| 2026-05-09 08:04 | 49.12253 | 2.15112 | 5601 ft | 221 kts | 185° |
| 2026-05-09 08:04 | 49.10747 | 2.15179 | 5490 ft | 213 kts | 168° |
| 2026-05-09 08:05 | 49.09377 | 2.16018 | 5360 ft | 213 kts | 148° |
| 2026-05-09 08:05 | 49.08135 | 2.17261 | 5264 ft | 212 kts | 148° |
| 2026-05-09 08:05 | 49.06926 | 2.18449 | 5163 ft | 202 kts | 148° |
| 2026-05-09 08:05 | 49.05753 | 2.19588 | 4882 ft | 198 kts | 148° |
| 2026-05-09 08:06 | 49.04609 | 2.20692 | 4587 ft | 195 kts | 148° |
| 2026-05-09 08:06 | 49.03463 | 2.21790 | 4276 ft | 192 kts | 148° |
| 2026-05-09 08:06 | 49.02342 | 2.22860 | 4054 ft | 187 kts | 147° |
| 2026-05-09 08:06 | 49.01476 | 2.24234 | 3829 ft | 183 kts | 116° |
| 2026-05-09 08:07 | 49.01224 | 2.26113 | 3660 ft | 183 kts | 92° |
| 2026-05-09 08:07 | 49.01308 | 2.28058 | 3457 ft | 184 kts | 87° |
| 2026-05-09 08:07 | 49.01278 | 2.29995 | 3241 ft | 182 kts | 94° |
| 2026-05-09 08:07 | 49.01262 | 2.31921 | 3045 ft | 182 kts | 91° |
| 2026-05-09 08:08 | 49.01185 | 2.33845 | 2798 ft | 181 kts | 94° |
| 2026-05-09 08:08 | 49.01172 | 2.35755 | 2572 ft | 180 kts | 89° |
| 2026-05-09 08:08 | 49.01291 | 2.37616 | 2398 ft | 176 kts | 81° |
| 2026-05-09 08:08 | 49.01529 | 2.39392 | 2225 ft | 163 kts | 79° |
| 2026-05-09 08:09 | 49.01731 | 2.41034 | 1933 ft | 154 kts | 83° |
| 2026-05-09 08:09 | 49.01890 | 2.42626 | 1623 ft | 152 kts | 84° |
| 2026-05-09 08:09 | 49.02008 | 2.44206 | 1476 ft | 146 kts | 85° |
| 2026-05-09 08:09 | 49.02093 | 2.45719 | 1296 ft | 143 kts | 85° |
| 2026-05-09 08:10 | 49.02187 | 2.47237 | 1112 ft | 144 kts | 84° |
| 2026-05-09 08:10 | 49.02275 | 2.48752 | 919 ft | 145 kts | 85° |
| 2026-05-09 08:10 | 49.02356 | 2.50181 | 756 ft | 145 kts | 84° |
| 2026-05-09 08:10 | 49.02430 | 2.51683 | 530 ft | 141 kts | 84° |
| 2026-05-09 08:11 | 49.02498 | 2.52954 | 375 ft | 138 kts | 83° |
| 2026-05-09 08:11 | 49.02561 | 2.54097 | 373 ft | 75 kts | 85° |
| 2026-05-09 08:11 | 49.02592 | 2.54673 | 372 ft | 47 kts | 85° |
| 2026-05-09 08:11 | 49.02602 | 2.55116 | 374 ft | 36 kts | 98° |
| 2026-05-09 08:12 | 49.02510 | 2.55487 | 365 ft | 9 kts | 115° |
| 2026-05-09 08:12 | 49.02481 | 2.55574 | 362 ft | 10 kts | 130° |
| 2026-05-09 08:12 | 49.02434 | 2.55613 | 365 ft | 8 kts | 172° |
| 2026-05-09 08:13 | 49.02372 | 2.55621 | 367 ft | 12 kts | 175° |
| 2026-05-09 08:13 | 49.02278 | 2.55633 | 373 ft | 15 kts | 175° |
| 2026-05-09 08:13 | 49.02169 | 2.55646 | 360 ft | 16 kts | 175° |
| 2026-05-09 08:13 | 49.02129 | 2.55651 | 359 ft | 2 kts | 175° |
| 2026-05-09 08:14 | 49.02100 | 2.55642 | 358 ft | 7 kts | 207° |
| 2026-05-09 08:14 | 49.02066 | 2.55541 | 359 ft | 17 kts | 265° |
| 2026-05-09 08:14 | 49.02056 | 2.55350 | 358 ft | 17 kts | 265° |
| 2026-05-09 08:14 | 49.02048 | 2.55196 | 358 ft | 15 kts | 265° |
| 2026-05-09 08:15 | 49.02041 | 2.55074 | 358 ft | 9 kts | 265° |
| 2026-05-09 08:15 | 49.02036 | 2.54962 | 358 ft | 12 kts | 265° |
| 2026-05-09 08:15 | 49.02011 | 2.54846 | 365 ft | 11 kts | 211° |
| 2026-05-09 08:15 | 49.01935 | 2.54844 | 357 ft | 12 kts | 175° |
| 2026-05-09 08:16 | 49.01831 | 2.54856 | 359 ft | 18 kts | 175° |
| 2026-05-09 08:16 | 49.01701 | 2.54872 | 361 ft | 18 kts | 175° |
| 2026-05-09 08:16 | 49.01568 | 2.54887 | 361 ft | 17 kts | 175° |
| 2026-05-09 08:16 | 49.01456 | 2.54901 | 364 ft | 18 kts | 173° |
| 2026-05-09 08:17 | 49.01371 | 2.54927 | 359 ft | 20 kts | 166° |
| 2026-05-09 08:17 | 49.01268 | 2.54973 | 357 ft | 8 kts | 163° |
| 2026-05-09 08:17 | 49.01249 | 2.54981 | 362 ft | 0 kts | 163° |
| 2026-05-09 08:17 | 49.01234 | 2.54985 | 357 ft | 0 kts | 163° |
| 2026-05-09 08:18 | 49.01153 | 2.55022 | 365 ft | 4 kts | 163° |
| 2026-05-09 08:18 | 49.01090 | 2.55051 | 358 ft | 15 kts | 163° |
| 2026-05-09 08:18 | 49.00972 | 2.55102 | 352 ft | 22 kts | 164° |
| 2026-05-09 08:18 | 49.00815 | 2.55171 | 339 ft | 22 kts | 164° |
| 2026-05-09 08:19 | 49.00684 | 2.55227 | 335 ft | 16 kts | 164° |
| 2026-05-09 08:19 | 49.00611 | 2.55259 | 334 ft | 3 kts | 164° |
| 2026-05-09 08:19 | 49.00576 | 2.55288 | 333 ft | 11 kts | 139° |
| 2026-05-09 08:19 | 49.00548 | 2.55410 | 336 ft | 15 kts | 86° |
| 2026-05-09 08:20 | 49.00557 | 2.55584 | 336 ft | 18 kts | 85° |
| 2026-05-09 08:20 | 49.01237 | 2.54984 | 359 ft | 4 kts | 163° |
| 2026-05-09 08:20 | 49.00564 | 2.55621 | 333 ft | 0 kts | 98° |
| 2026-05-09 08:20 | 49.00574 | 2.55905 | 336 ft | 2 kts | 84° |
| 2026-05-09 08:21 | 49.00587 | 2.55994 | 336 ft | 16 kts | 71° |
| 2026-05-09 08:21 | 49.00612 | 2.56138 | 336 ft | 13 kts | 84° |
| 2026-05-09 08:21 | 49.00622 | 2.56310 | 332 ft | 21 kts | 85° |
| 2026-05-09 08:21 | 49.00634 | 2.56544 | 334 ft | 22 kts | 85° |
| 2026-05-09 08:22 | 49.00642 | 2.56685 | 335 ft | 0 kts | 85° |
| 2026-05-09 08:22 | 49.00639 | 2.56693 | 335 ft | 1 kts | 123° |
| 2026-05-09 08:22 | 49.00632 | 2.56690 | 332 ft | 2 kts | 208° |
| 2026-05-09 08:22 | 49.00617 | 2.56663 | 336 ft | 1 kts | 219° |
| 2026-05-09 08:23 | 49.00612 | 2.56661 | 336 ft | 1 kts | 194° |
| 2026-05-09 08:23 | 49.00588 | 2.56661 | 336 ft | 5 kts | 176° |
| 2026-05-09 08:23 | 49.00570 | 2.56663 | 336 ft | 0 kts | 175° |